Campanya Meteocatpedra
Centenari de l'SMC: 100 anys mirant el cel

Dades de l'estació automàtica Riudecanyes

?
?

Resum diari

23:00 TU
Dades diàries de l'estació meteorològica
Temperatura mitjana 20.3 °C
Temperatura màxima 25.9 °C 13:45 TU
Temperatura mínima 16.3 °C 23:28 TU
Humitat relativa mitjana 50%
Precipitació acumulada 0.0 mm
Ratxa màxima del vent (10 m) 56.2 km/h - 302º 10:04 TU
Irradiació solar global 21.3 MJ/m2

El tram horari està expressat en Temps Universal (TU). Cal sumar una hora en horari d'hivern i dues en horari d'estiu per passar a l'hora oficial.

Riudecanyes

Metadades estació meteorològica
Municipi Riudecanyes
Comarca Baix Camp
Altitud 170 m
Data alta 06.02.2019
Estat actual Operativa
Dades de període
Període
TU
TM
°C
TX
°C
TN
°C
HRM
%
PPT
mm
VVM (10 m)
km/h
DVM (10 m)
graus
VVX (10 m)
km/h
RS
W/m2
00:00 - 00:30 19.0 19.3 18.8 57 0.0 9.4 286 22.3 0
00:30 - 01:00 18.6 18.8 18.4 59 0.0 8.3 283 20.5 0
01:00 - 01:30 18.2 18.4 18.0 60 0.0 9.0 275 24.1 0
01:30 - 02:00 18.2 18.5 17.9 59 0.0 10.4 289 22.0 0
02:00 - 02:30 17.8 18.1 17.3 60 0.0 7.9 270 20.5 0
02:30 - 03:00 17.5 17.6 17.2 61 0.0 9.4 287 21.2 0
03:00 - 03:30 17.4 17.5 17.2 61 0.0 8.6 262 24.1 0
03:30 - 04:00 17.2 17.4 17.0 61 0.0 8.3 274 38.2 0
04:00 - 04:30 17.1 17.3 16.9 62 0.0 10.1 283 36.7 0
04:30 - 05:00 17.2 17.3 17.1 62 0.0 16.9 305 45.0 0
05:00 - 05:30 17.2 17.3 17.2 62 0.0 24.5 315 45.7 0
05:30 - 06:00 17.1 17.2 17.0 63 0.0 27.0 313 52.9 6
06:00 - 06:30 17.1 17.4 17.0 63 0.0 24.1 312 44.6 54
06:30 - 07:00 17.4 17.5 17.3 63 0.0 21.6 314 45.7 115
07:00 - 07:30 17.8 18.1 17.4 62 0.0 25.2 308 50.4 231
07:30 - 08:00 18.3 18.6 18.0 61 0.0 26.6 307 47.2 380
08:00 - 08:30 18.9 19.1 18.5 60 0.0 24.8 306 46.4 452
08:30 - 09:00 19.5 19.8 19.1 58 0.0 26.3 307 51.1 528
09:00 - 09:30 20.3 20.8 19.8 56 0.0 25.6 301 47.9 613
09:30 - 10:00 21.0 21.3 20.6 53 0.0 28.8 295 50.8 683
10:00 - 10:30 21.7 22.1 21.2 51 0.0 26.6 295 56.2 779
10:30 - 11:00 22.3 22.7 22.0 48 0.0 23.0 297 46.4 781
11:00 - 11:30 22.9 23.5 22.5 46 0.0 19.1 296 43.2 816
11:30 - 12:00 23.5 23.8 23.1 43 0.0 20.2 296 41.8 807
12:00 - 12:30 24.0 24.3 23.7 43 0.0 21.2 289 46.4 811
12:30 - 13:00 24.5 25.0 24.1 41 0.0 19.8 294 43.6 788
13:00 - 13:30 25.0 25.3 24.6 38 0.0 17.3 293 37.1 750
13:30 - 14:00 25.5 25.9 25.1 36 0.0 11.9 278 31.7 696
14:00 - 14:30 25.5 25.9 25.0 34 0.0 14.8 284 33.8 636
14:30 - 15:00 25.2 25.5 24.9 33 0.0 19.4 288 41.0 565
15:00 - 15:30 25.1 25.2 24.7 33 0.0 17.6 286 39.6 480
15:30 - 16:00 24.7 25.0 24.3 33 0.0 18.0 295 35.6 388
16:00 - 16:30 24.1 24.2 23.9 32 0.0 19.4 295 38.2 290
16:30 - 17:00 23.6 23.8 23.1 33 0.0 17.3 304 34.9 182
17:00 - 17:30 22.7 23.1 22.2 35 0.0 18.4 304 41.8 83
17:30 - 18:00 21.9 22.1 21.6 38 0.0 20.2 302 39.6 8
18:00 - 18:30 21.4 21.7 21.0 40 0.0 15.8 305 34.6 0
18:30 - 19:00 20.8 21.0 20.5 42 0.0 13.7 309 29.5 0
19:00 - 19:30 20.5 20.6 20.1 42 0.0 13.3 314 33.8 0
19:30 - 20:00 19.7 20.1 19.0 45 0.0 6.1 5 20.5 0
20:00 - 20:30 18.5 19.0 18.3 48 0.0 5.0 309 12.2 0
20:30 - 21:00 18.3 18.5 18.1 49 0.0 6.8 286 13.0 0
21:00 - 21:30 18.3 18.5 18.2 49 0.0 10.4 280 17.6 0
21:30 - 22:00 18.1 18.3 17.9 50 0.0 14.4 299 31.0 0
22:00 - 22:30 17.7 17.9 17.3 54 0.0 16.6 307 36.7 0
22:30 - 23:00 17.0 17.3 16.7 58 0.0 12.6 311 27.4 0
23:00 - 23:30 16.6 16.7 16.3 61 0.0 13.0 316 29.2 0

Les dades en taronja només han passat un control de qualitat automàtic. Resta pendent la seva validació definitiva.